createdAt,value
2018-06-17T00:00:41.783Z,86.57
2018-06-17T00:01:44.949Z,86.10
2018-06-17T00:02:47.787Z,86.88
2018-06-17T00:03:51.113Z,86.70
2018-06-17T00:04:54.497Z,85.90
2018-06-17T00:05:59.143Z,86.08
2018-06-17T00:07:02.064Z,86.28
2018-06-17T00:08:06.002Z,86.54
2018-06-17T00:09:09.163Z,86.40
2018-06-17T00:10:12.408Z,86.73
2018-06-17T00:11:16.867Z,86.05
2018-06-17T00:12:20.646Z,86.05
2018-06-17T00:13:24.079Z,86.33
2018-06-17T00:14:28.223Z,86.15
2018-06-17T00:15:31.712Z,86.66
2018-06-17T00:16:34.929Z,86.56
2018-06-17T00:17:38.013Z,86.31
2018-06-17T00:18:42.076Z,86.87
2018-06-17T00:19:45.231Z,86.32
2018-06-17T00:20:48.024Z,86.75
2018-06-17T00:21:50.919Z,86.50
2018-06-17T00:22:54.427Z,86.91
2018-06-17T00:23:57.504Z,86.91
2018-06-17T00:25:00.623Z,85.74
2018-06-17T00:26:03.417Z,86.45
2018-06-17T00:27:06.182Z,86.18
2018-06-17T00:28:09.328Z,86.24
2018-06-17T00:29:14.207Z,86.26
2018-06-17T00:30:18.439Z,86.04
2018-06-17T00:31:21.270Z,85.96
2018-06-17T00:32:25.664Z,85.78
2018-06-17T00:33:28.474Z,85.36
2018-06-17T00:34:31.751Z,85.60
2018-06-17T00:35:36.336Z,85.01
2018-06-17T00:36:39.589Z,86.34
2018-06-17T00:37:42.434Z,86.63
2018-06-17T00:38:45.185Z,86.39
2018-06-17T00:39:48.483Z,85.63
2018-06-17T00:40:52.622Z,85.50
2018-06-17T00:41:56.059Z,86.02
2018-06-17T00:42:58.872Z,85.10
2018-06-17T00:44:01.715Z,85.92
2018-06-17T00:45:04.873Z,85.49
2018-06-17T00:46:07.885Z,85.46
2018-06-17T00:47:10.738Z,86.08
2018-06-17T00:48:14.654Z,85.62
2018-06-17T00:49:17.445Z,86.07
2018-06-17T00:50:20.832Z,85.82
2018-06-17T00:51:23.598Z,86.14
2018-06-17T00:52:26.367Z,85.88
2018-06-17T00:53:29.160Z,85.88
2018-06-17T00:54:33.800Z,85.82
2018-06-17T00:55:37.331Z,86.29
2018-06-17T00:56:40.296Z,86.19
2018-06-17T00:57:43.116Z,85.94
2018-06-17T00:58:45.903Z,86.10
2018-06-17T00:59:50.407Z,85.79
2018-06-17T01:00:54.499Z,86.79
2018-06-17T01:01:57.456Z,86.35
2018-06-17T01:03:00.248Z,86.67
2018-06-17T01:04:03.863Z,86.43
2018-06-17T01:05:08.425Z,87.03
2018-06-17T01:06:12.377Z,86.74
2018-06-17T01:07:16.395Z,86.93
2018-06-17T01:08:19.147Z,86.04
2018-06-17T01:09:21.903Z,86.04
2018-06-17T01:10:24.712Z,85.44
2018-06-17T01:11:28.824Z,84.76
2018-06-17T01:12:33.589Z,84.79
2018-06-17T01:13:37.387Z,85.18
2018-06-17T01:14:40.458Z,83.98
2018-06-17T01:15:43.222Z,83.42
2018-06-17T01:16:46.025Z,83.83
2018-06-17T01:17:50.342Z,83.91
2018-06-17T01:18:53.129Z,83.93
2018-06-17T01:19:56.238Z,83.64
2018-06-17T01:20:58.991Z,83.35
2018-06-17T01:22:03.602Z,82.74
2018-06-17T01:23:06.938Z,83.39
2018-06-17T01:24:10.908Z,83.64
2018-06-17T01:25:14.200Z,83.47
2018-06-17T01:26:17.660Z,84.29
2018-06-17T01:27:20.445Z,84.58
2018-06-17T01:28:25.049Z,84.93
2018-06-17T01:29:27.887Z,84.56
2018-06-17T01:30:30.714Z,84.59
2018-06-17T01:31:33.527Z,84.32
2018-06-17T01:32:37.112Z,84.20
2018-06-17T01:33:40.362Z,84.35
2018-06-17T01:34:44.625Z,84.48
2018-06-17T01:35:47.430Z,85.67
2018-06-17T01:37:01.297Z,85.33
2018-06-17T01:38:06.030Z,85.09
2018-06-17T01:39:09.773Z,85.06
2018-06-17T01:40:13.414Z,85.40
2018-06-17T01:41:17.653Z,85.41
2018-06-17T01:42:21.054Z,85.03
2018-06-17T01:43:23.946Z,85.29
2018-06-17T01:44:27.374Z,84.47
2018-06-17T01:45:30.374Z,85.17
2018-06-17T01:46:34.304Z,84.56
2018-06-17T01:47:37.133Z,84.40
2018-06-17T01:48:39.972Z,84.79
2018-06-17T01:49:43.110Z,85.34
2018-06-17T01:50:47.613Z,84.49
2018-06-17T01:51:50.425Z,85.07
2018-06-17T01:52:53.491Z,84.45
2018-06-17T01:53:56.296Z,84.28
2018-06-17T01:54:59.420Z,85.08
2018-06-17T01:56:03.719Z,85.09
2018-06-17T01:57:10.295Z,84.81
2018-06-17T01:58:14.095Z,84.92
2018-06-17T01:59:17.970Z,84.60
2018-06-17T02:00:21.598Z,84.76
2018-06-17T02:01:24.434Z,84.66
2018-06-17T02:02:27.379Z,85.37
2018-06-17T02:03:36.519Z,85.45
2018-06-17T02:04:45.410Z,85.18
2018-06-17T02:05:53.915Z,84.92
2018-06-17T02:07:01.679Z,85.45
2018-06-17T02:08:09.406Z,85.02
2018-06-17T02:09:17.733Z,85.84
2018-06-17T02:10:25.590Z,85.74
2018-06-17T02:11:33.495Z,85.00
2018-06-17T02:12:37.185Z,84.88
2018-06-17T02:13:39.952Z,85.17
2018-06-17T02:14:50.056Z,85.08
2018-06-17T02:15:56.597Z,84.77
2018-06-17T02:17:00.355Z,84.51
2018-06-17T02:18:03.213Z,85.27
2018-06-17T02:19:06.556Z,85.13
2018-06-17T02:20:13.582Z,84.85
2018-06-17T02:21:16.868Z,85.07
2018-06-17T02:22:19.735Z,84.82
2018-06-17T02:23:22.876Z,86.01
2018-06-17T02:24:29.250Z,86.01
2018-06-17T02:25:32.385Z,86.30
2018-06-17T02:26:36.283Z,85.76
2018-06-17T02:27:39.603Z,86.17
2018-06-17T02:28:42.684Z,85.50
2018-06-17T02:29:45.768Z,85.40
2018-06-17T02:30:49.075Z,85.72
2018-06-17T02:31:51.937Z,85.54
2018-06-17T02:32:54.767Z,85.99
2018-06-17T02:33:58.266Z,85.38
2018-06-17T02:35:03.442Z,85.20
2018-06-17T02:36:07.606Z,84.93
2018-06-17T02:37:11.440Z,85.75
2018-06-17T02:38:14.276Z,85.63
2018-06-17T02:39:17.077Z,85.33
2018-06-17T02:40:20.302Z,86.10
2018-06-17T02:41:23.432Z,85.62
2018-06-17T02:42:26.519Z,85.81
2018-06-17T02:43:29.370Z,86.13
2018-06-17T02:44:32.182Z,87.03
2018-06-17T02:45:39.900Z,86.63
2018-06-17T02:46:48.015Z,86.78
2018-06-17T02:49:57.630Z,86.25
2018-06-17T02:53:06.762Z,86.16
2018-06-17T02:54:14.463Z,85.95
2018-06-17T02:55:17.257Z,85.95
2018-06-17T02:56:20.278Z,86.51
2018-06-17T02:57:23.913Z,85.55
2018-06-17T02:58:28.130Z,85.76
2018-06-17T02:59:30.939Z,85.92
2018-06-17T03:00:33.746Z,85.87
2018-06-17T03:01:37.177Z,86.42
2018-06-17T03:02:40.548Z,85.73
2018-06-17T03:03:43.427Z,86.03
2018-06-17T03:04:46.659Z,86.13
2018-06-17T03:05:49.508Z,86.02
2018-06-17T03:06:52.461Z,86.52
2018-06-17T03:07:55.323Z,86.58
2018-06-17T03:08:58.098Z,86.70
2018-06-17T03:10:01.114Z,86.67
2018-06-17T03:11:06.032Z,87.49
2018-06-17T03:12:09.816Z,86.48
2018-06-17T03:13:13.189Z,87.40
2018-06-17T03:14:16.620Z,86.31
2018-06-17T03:15:19.411Z,86.85
2018-06-17T03:16:22.930Z,86.47
2018-06-17T03:17:27.535Z,86.90
2018-06-17T03:18:30.978Z,86.87
2018-06-17T03:19:33.841Z,86.77
2018-06-17T03:20:36.721Z,87.14
2018-06-17T03:21:39.912Z,86.18
2018-06-17T03:22:42.937Z,86.49
2018-06-17T03:23:46.349Z,87.45
2018-06-17T03:24:54.354Z,87.01
2018-06-17T03:26:02.085Z,86.64
2018-06-17T03:27:09.794Z,86.18
2018-06-17T03:28:17.462Z,87.24
2018-06-17T03:29:25.584Z,87.65
2018-06-17T03:32:39.236Z,87.29
2018-06-17T03:33:50.505Z,88.33
2018-06-17T03:34:58.516Z,87.88
2018-06-17T03:36:06.313Z,87.21
2018-06-17T03:37:09.104Z,87.08
2018-06-17T03:38:12.858Z,87.21
2018-06-17T03:39:16.879Z,87.78
2018-06-17T03:40:19.663Z,87.41
2018-06-17T03:41:22.907Z,87.63
2018-06-17T03:42:26.643Z,87.72
2018-06-17T03:43:30.239Z,87.23
2018-06-17T03:44:34.151Z,86.90
2018-06-17T03:45:37.107Z,87.73
2018-06-17T03:46:40.376Z,87.47
2018-06-17T03:47:43.197Z,87.08
2018-06-17T03:48:46.851Z,87.09
2018-06-17T03:49:50.391Z,87.42
2018-06-17T03:50:53.852Z,87.32
2018-06-17T03:51:56.672Z,87.67
2018-06-17T03:53:00.104Z,86.79
2018-06-17T03:54:03.714Z,86.90
2018-06-17T03:55:07.075Z,87.43
2018-06-17T03:56:10.506Z,87.14
2018-06-17T03:57:13.422Z,86.50
2018-06-17T03:58:16.321Z,86.67
2018-06-17T03:59:19.823Z,86.81
2018-06-17T04:00:22.929Z,86.58
2018-06-17T04:01:26.054Z,85.90
2018-06-17T04:02:29.019Z,86.32
2018-06-17T04:03:31.846Z,86.01
2018-06-17T04:04:39.593Z,86.63
2018-06-17T04:05:42.744Z,87.00
2018-06-17T04:06:46.561Z,86.60
2018-06-17T04:07:50.589Z,86.59
2018-06-17T04:08:55.537Z,86.77
2018-06-17T04:09:58.511Z,87.22
2018-06-17T04:11:01.334Z,86.79
2018-06-17T04:12:04.541Z,86.43
2018-06-17T04:13:07.988Z,86.92
2018-06-17T04:14:12.302Z,87.27
2018-06-17T04:15:16.978Z,86.45
2018-06-17T04:16:19.783Z,87.12
2018-06-17T04:17:22.598Z,86.98
2018-06-17T04:18:25.801Z,87.24
2018-06-17T04:19:29.249Z,86.94
2018-06-17T04:20:32.118Z,86.97
2018-06-17T04:21:37.598Z,86.46
2018-06-17T04:22:43.456Z,86.51
2018-06-17T04:23:46.251Z,86.83
2018-06-17T04:24:49.360Z,86.31
2018-06-17T04:25:52.571Z,86.70
2018-06-17T04:26:56.061Z,86.67
2018-06-17T04:27:58.893Z,86.57
2018-06-17T04:29:01.705Z,87.00
2018-06-17T04:30:05.796Z,86.80
2018-06-17T04:31:09.326Z,87.33
2018-06-17T04:32:13.387Z,87.04
2018-06-17T04:33:18.333Z,86.96
2018-06-17T04:34:27.462Z,86.56
2018-06-17T04:35:34.513Z,85.89
2018-06-17T04:36:37.588Z,85.48
2018-06-17T04:37:41.493Z,85.66
2018-06-17T04:38:44.307Z,85.53
2018-06-17T05:02:49.220Z,83.51
2018-06-17T05:03:53.225Z,84.27
2018-06-17T05:04:56.083Z,83.62
2018-06-17T05:05:58.928Z,84.11
2018-06-17T05:07:01.831Z,83.22
2018-06-17T05:08:06.013Z,83.73
2018-06-17T05:09:09.804Z,83.25
2018-06-17T05:10:13.020Z,82.90
2018-06-17T05:11:15.832Z,82.29
2018-06-17T05:12:18.690Z,82.28
2018-06-17T05:13:21.973Z,82.66
2018-06-17T05:14:24.962Z,81.98
2018-06-17T05:15:27.854Z,82.12
2018-06-17T05:16:31.123Z,81.45
2018-06-17T05:17:34.593Z,81.51
2018-06-17T05:18:37.856Z,80.92
2018-06-17T05:19:41.819Z,81.01
2018-06-17T05:20:44.649Z,79.87
2018-06-17T05:21:47.493Z,78.79
2018-06-17T05:22:51.505Z,79.24
2018-06-17T05:23:54.532Z,79.91
2018-06-17T05:24:57.364Z,79.47
2018-06-17T05:26:00.191Z,79.58
2018-06-17T05:27:03.000Z,79.59
2018-06-17T05:28:06.318Z,80.05
2018-06-17T05:29:09.787Z,79.19
2018-06-17T05:30:12.631Z,79.24
2018-06-17T05:31:15.453Z,78.68
2018-06-17T05:32:18.571Z,79.34
2018-06-17T05:33:22.014Z,79.48
2018-06-17T05:34:24.966Z,78.28
2018-06-17T05:35:28.130Z,78.66
2018-06-17T05:36:30.938Z,78.15
2018-06-17T05:37:34.767Z,78.53
2018-06-17T05:38:37.867Z,78.54
2018-06-17T05:39:40.719Z,78.28
2018-06-17T05:40:43.536Z,78.31
2018-06-17T05:41:48.265Z,78.38
2018-06-17T05:42:52.924Z,77.39
2018-06-17T05:43:57.006Z,77.99
2018-06-17T05:45:00.384Z,78.51
2018-06-17T05:46:03.244Z,78.45
2018-06-17T05:47:06.152Z,78.00
2018-06-17T05:48:09.638Z,77.91
2018-06-17T05:49:13.224Z,77.32
2018-06-17T05:50:16.564Z,76.24
2018-06-17T05:51:19.930Z,77.18
2018-06-17T05:52:22.734Z,77.28
2018-06-17T05:53:26.443Z,76.92
2018-06-17T05:54:30.421Z,76.98
2018-06-17T05:55:34.745Z,76.38
2018-06-17T05:56:37.778Z,76.55
2018-06-17T05:57:40.773Z,77.48
2018-06-17T05:58:44.740Z,78.09
2018-06-17T05:59:47.643Z,78.01
2018-06-17T06:00:53.676Z,77.68
2018-06-17T06:01:57.358Z,77.45
2018-06-17T06:03:00.213Z,75.72
2018-06-17T06:04:03.098Z,75.58
2018-06-17T06:05:06.001Z,76.19
2018-06-17T06:06:09.419Z,75.89
2018-06-17T06:07:13.563Z,76.63
2018-06-17T06:08:20.122Z,76.71
2018-06-17T06:09:24.539Z,76.32
2018-06-17T06:10:27.452Z,76.25
2018-06-17T06:11:30.285Z,76.24
2018-06-17T06:12:33.137Z,76.41
2018-06-17T06:13:37.863Z,76.68
2018-06-17T06:14:43.702Z,76.24
2018-06-17T06:15:47.648Z,76.59
2018-06-17T06:16:51.554Z,76.38
2018-06-17T06:17:54.442Z,76.74
2018-06-17T06:18:57.263Z,76.17
2018-06-17T06:20:00.561Z,76.35
2018-06-17T06:21:04.587Z,76.19
2018-06-17T06:22:07.716Z,77.13
2018-06-17T06:23:10.524Z,76.47
2018-06-17T06:24:13.411Z,76.71
2018-06-17T06:25:16.391Z,76.55
2018-06-17T06:26:21.111Z,76.51
2018-06-17T06:27:24.493Z,76.17
2018-06-17T06:28:27.271Z,73.39
2018-06-17T06:29:30.143Z,72.84
2018-06-17T06:30:33.015Z,73.20
2018-06-17T06:31:35.875Z,73.61
2018-06-17T06:32:39.714Z,73.71
2018-06-17T06:33:42.510Z,73.26
2018-06-17T06:34:45.319Z,73.02
2018-06-17T06:35:48.157Z,72.74
2018-06-17T06:36:51.033Z,73.75
2018-06-17T06:37:54.005Z,73.71
2018-06-17T06:38:57.192Z,75.06
2018-06-17T06:40:00.027Z,74.57
2018-06-17T06:41:03.439Z,74.39
2018-06-17T06:42:06.263Z,74.37
2018-06-17T06:43:09.176Z,75.11
2018-06-17T06:44:12.719Z,74.31
2018-06-17T06:45:17.359Z,72.45
2018-06-17T06:46:21.239Z,73.20
2018-06-17T06:47:25.049Z,72.34
2018-06-17T06:48:27.898Z,71.92
2018-06-17T06:49:30.736Z,72.59
2018-06-17T06:50:33.544Z,72.35
2018-06-17T06:51:37.174Z,71.94
2018-06-17T06:52:40.108Z,72.51
2018-06-17T06:53:42.963Z,72.27
2018-06-17T06:54:45.787Z,70.58
2018-06-17T06:55:48.633Z,70.94
2018-06-17T06:56:53.032Z,71.05
2018-06-17T06:57:56.332Z,71.14
2018-06-17T06:58:59.965Z,71.15
2018-06-17T07:00:03.608Z,71.22
2018-06-17T07:01:06.482Z,71.07
2018-06-17T07:02:09.317Z,71.18
2018-06-17T07:03:12.131Z,70.14
2018-06-17T07:04:15.342Z,70.23
2018-06-17T07:05:18.200Z,70.33
2018-06-17T07:06:20.995Z,69.28
2018-06-17T07:07:23.805Z,68.18
2018-06-17T07:08:26.576Z,68.84
2018-06-17T07:09:29.469Z,69.36
2018-06-17T07:10:33.230Z,69.32
2018-06-17T07:11:36.354Z,68.50
2018-06-17T07:12:39.235Z,68.34
2018-06-17T07:13:42.051Z,69.52
2018-06-17T07:14:46.098Z,69.07
2018-06-17T07:15:48.882Z,69.53
2018-06-17T07:16:52.100Z,69.16
2018-06-17T07:17:55.877Z,67.52
2018-06-17T07:18:58.681Z,66.92
2018-06-17T07:20:01.499Z,67.31
2018-06-17T07:21:04.442Z,66.62
2018-06-17T07:22:07.250Z,67.54
2018-06-17T07:23:10.379Z,66.86
2018-06-17T07:24:13.146Z,68.03
2018-06-17T07:25:15.949Z,68.23
2018-06-17T07:26:18.727Z,67.57
2018-06-17T07:27:21.536Z,68.01
2018-06-17T07:28:24.351Z,66.70
2018-06-17T07:29:34.743Z,65.08
2018-06-17T07:30:37.535Z,65.56
2018-06-17T07:31:40.656Z,65.73
2018-06-17T07:32:44.503Z,65.67
2018-06-17T07:33:50.927Z,65.00
2018-06-17T07:34:55.542Z,65.46
2018-06-17T07:35:58.681Z,65.95
2018-06-17T07:37:01.475Z,65.57
2018-06-17T07:38:04.251Z,64.83
2018-06-17T07:39:09.957Z,66.38
2018-06-17T07:40:14.256Z,66.01
2018-06-17T07:41:23.814Z,66.31
2018-06-17T07:42:26.605Z,65.97
2018-06-17T07:43:29.425Z,65.93
2018-06-17T07:44:32.361Z,66.04
2018-06-17T07:45:36.272Z,64.69
2018-06-17T07:46:43.430Z,65.41
2018-06-17T07:47:49.574Z,64.62
2018-06-17T07:48:52.431Z,64.15
2018-06-17T07:49:55.238Z,65.87
2018-06-17T07:50:59.730Z,64.95
2018-06-17T07:52:03.164Z,65.33
2018-06-17T07:53:06.472Z,65.70
2018-06-17T07:54:11.063Z,63.33
2018-06-17T07:55:14.772Z,64.54
2018-06-17T07:56:20.665Z,64.34
2018-06-17T07:57:24.695Z,64.79
2018-06-17T07:58:28.733Z,64.42
2018-06-17T07:59:32.205Z,64.48
2018-06-17T08:00:35.308Z,62.91
2018-06-17T08:01:38.142Z,64.50
2018-06-17T08:02:42.091Z,63.47
2018-06-17T08:03:45.931Z,63.98
2018-06-17T08:04:50.633Z,64.11
2018-06-17T08:05:53.556Z,63.56
2018-06-17T08:07:02.367Z,63.53
2018-06-17T08:08:06.355Z,63.41
2018-06-17T08:09:10.931Z,64.25
2018-06-17T08:10:15.287Z,62.93
2018-06-17T08:11:18.564Z,62.22
2018-06-17T08:12:21.688Z,63.29
2018-06-17T08:13:25.675Z,62.95
2018-06-17T08:14:28.779Z,63.20
2018-06-17T08:15:34.084Z,64.24
2018-06-17T08:16:36.954Z,62.60
2018-06-17T08:17:40.760Z,63.20
2018-06-17T08:18:44.353Z,62.76
2018-06-17T08:19:48.704Z,62.73
2018-06-17T08:20:52.925Z,63.00
2018-06-17T08:21:57.945Z,62.24
2018-06-17T08:23:02.600Z,62.37
2018-06-17T08:24:05.555Z,60.48
2018-06-17T08:25:13.362Z,62.22
2018-06-17T08:26:16.170Z,61.55
2018-06-17T08:27:19.407Z,61.95
2018-06-17T08:28:22.270Z,61.99
2018-06-17T08:29:25.259Z,61.70
2018-06-17T08:30:28.531Z,63.59
2018-06-17T08:31:39.641Z,63.29
2018-06-17T08:32:44.782Z,63.60
2018-06-17T08:33:49.603Z,62.34
2018-06-17T08:34:53.050Z,62.61
2018-06-17T08:35:55.876Z,63.18
2018-06-17T08:36:59.333Z,64.40
2018-06-17T08:38:04.382Z,62.57
2018-06-17T08:39:08.286Z,62.97
2018-06-17T08:40:12.518Z,62.84
2018-06-17T08:41:15.975Z,61.78
2018-06-17T08:42:20.090Z,62.47
2018-06-17T08:43:23.745Z,62.16
2018-06-17T08:44:27.618Z,63.03
2018-06-17T08:45:30.483Z,62.08
2018-06-17T08:46:33.340Z,62.90
2018-06-17T08:47:36.436Z,62.87
2018-06-17T08:48:39.309Z,62.26
2018-06-17T08:49:43.546Z,61.22
2018-06-17T08:50:46.665Z,61.72
2018-06-17T08:51:49.504Z,61.01
2018-06-17T08:52:52.319Z,61.16
2018-06-17T08:53:55.671Z,59.57
2018-06-17T08:54:58.465Z,60.67
2018-06-17T08:56:02.224Z,61.12
2018-06-17T08:57:06.783Z,58.54
2018-06-17T08:58:09.676Z,59.55
2018-06-17T08:59:13.543Z,59.73
2018-06-17T09:00:17.240Z,58.13
2018-06-17T09:01:23.492Z,60.29
2018-06-17T09:02:29.169Z,60.19
2018-06-17T09:03:32.251Z,59.59
2018-06-17T09:04:36.453Z,57.17
2018-06-17T09:05:39.345Z,58.56
2018-06-17T09:06:44.227Z,59.25
2018-06-17T09:07:53.722Z,58.32
2018-06-17T09:09:01.459Z,59.46
2018-06-17T09:10:09.211Z,58.11
2018-06-17T09:11:14.303Z,58.36
2018-06-17T09:12:19.183Z,57.35
2018-06-17T09:13:28.650Z,57.74
2018-06-17T09:14:32.603Z,57.46
2018-06-17T09:15:39.134Z,56.54
2018-06-17T09:16:45.048Z,56.70
2018-06-17T09:17:55.968Z,57.33
2018-06-17T09:18:59.380Z,57.61
2018-06-17T09:20:04.250Z,56.53
2018-06-17T09:21:10.301Z,57.07
2018-06-17T09:22:13.945Z,56.50
2018-06-17T09:23:20.640Z,56.51
2018-06-17T09:24:30.351Z,58.40
2018-06-17T09:25:34.281Z,58.31
2018-06-17T09:26:37.259Z,57.56
2018-06-17T09:27:40.492Z,56.14
2018-06-17T09:28:43.990Z,56.50
2018-06-17T09:29:48.453Z,57.97
2018-06-17T09:30:53.710Z,57.62
2018-06-17T09:31:57.405Z,57.26
2018-06-17T09:33:00.572Z,57.10
2018-06-17T09:34:08.246Z,57.19
2018-06-17T09:35:12.442Z,57.70
2018-06-17T09:36:15.887Z,56.50
2018-06-17T09:37:18.674Z,57.21
2018-06-17T09:38:21.486Z,58.33
2018-06-17T09:39:27.283Z,58.42
2018-06-17T09:40:30.794Z,58.42
2018-06-17T09:41:35.429Z,58.43
2018-06-17T09:42:40.620Z,58.36
2018-06-17T09:43:44.165Z,56.43
2018-06-17T09:45:55.503Z,58.90
2018-06-17T09:46:59.835Z,57.72
2018-06-17T09:48:02.911Z,57.79
2018-06-17T09:49:05.722Z,57.56
2018-06-17T09:50:09.147Z,58.21
2018-06-17T09:51:13.225Z,59.18
2018-06-17T09:52:16.726Z,58.64
2018-06-17T09:53:19.828Z,57.42
2018-06-17T09:54:23.410Z,58.09
2018-06-17T09:55:28.971Z,58.19
2018-06-17T09:56:31.835Z,58.35
2018-06-17T09:57:36.317Z,58.47
2018-06-17T09:58:40.123Z,58.36
2018-06-17T09:59:44.122Z,58.62
2018-06-17T10:00:47.011Z,58.59
2018-06-17T10:01:50.409Z,57.86
2018-06-17T10:02:55.486Z,57.32
2018-06-17T10:03:58.368Z,56.98
2018-06-17T10:05:01.857Z,56.34
2018-06-17T10:06:05.018Z,55.82
2018-06-17T10:07:08.490Z,53.88
2018-06-17T10:08:11.583Z,54.78
2018-06-17T10:09:14.487Z,54.77
2018-06-17T10:10:19.202Z,54.65
2018-06-17T10:11:23.664Z,54.88
2018-06-17T10:12:26.859Z,56.21
2018-06-17T10:13:31.012Z,56.56
2018-06-17T10:14:34.734Z,56.47
2018-06-17T10:15:37.616Z,55.88
2018-06-17T10:16:41.408Z,56.37
2018-06-17T10:17:48.179Z,56.54
2018-06-17T10:18:53.424Z,56.84
2018-06-17T10:21:15.583Z,57.39
2018-06-17T10:22:18.512Z,57.11
2018-06-17T10:23:23.471Z,57.02
2018-06-17T10:24:26.338Z,56.53
2018-06-17T10:25:29.486Z,56.83
2018-06-17T10:26:33.327Z,55.15
2018-06-17T10:27:36.151Z,54.31
2018-06-17T10:28:39.998Z,55.62
2018-06-17T10:29:42.854Z,54.35
2018-06-17T10:30:47.925Z,54.36
2018-06-17T10:31:51.156Z,54.43
2018-06-17T10:32:59.223Z,55.94
2018-06-17T10:34:02.090Z,56.14
2018-06-17T10:35:05.542Z,56.43
2018-06-17T10:36:10.445Z,56.16
2018-06-17T10:37:14.365Z,56.21
2018-06-17T10:38:18.172Z,56.63
2018-06-17T10:39:22.432Z,56.63
2018-06-17T10:40:25.262Z,56.71
2018-06-17T10:41:28.738Z,56.67
2018-06-17T10:42:31.663Z,56.16
2018-06-17T10:43:38.763Z,55.31
2018-06-17T10:44:44.371Z,55.55
2018-06-17T10:45:47.252Z,56.32
2018-06-17T10:46:50.082Z,55.81
2018-06-17T10:47:54.868Z,56.33
2018-06-17T10:48:58.264Z,56.19
2018-06-17T10:50:01.158Z,56.74
2018-06-17T10:51:05.073Z,55.99
2018-06-17T10:52:07.919Z,56.64
2018-06-17T10:53:10.801Z,55.96
2018-06-17T10:54:15.700Z,56.06
2018-06-17T10:55:18.512Z,55.89
2018-06-17T10:56:21.362Z,55.60
2018-06-17T10:57:25.807Z,55.94
2018-06-17T10:58:29.040Z,55.15
2018-06-17T10:59:31.916Z,55.54
2018-06-17T11:00:34.987Z,55.27
2018-06-17T11:01:39.909Z,54.20
2018-06-17T11:02:42.849Z,55.48
2018-06-17T11:03:46.500Z,54.92
2018-06-17T11:04:49.887Z,54.03
2018-06-17T11:05:52.728Z,53.20
2018-06-17T11:06:55.583Z,53.10
2018-06-17T11:07:59.065Z,53.21
2018-06-17T11:09:02.602Z,51.67
2018-06-17T11:10:06.808Z,51.54
2018-06-17T11:11:10.271Z,51.72
2018-06-17T11:12:14.439Z,52.14
2018-06-17T11:13:17.293Z,52.88
2018-06-17T11:14:20.661Z,53.27
2018-06-17T11:15:23.633Z,52.97
2018-06-17T11:16:27.019Z,52.30
2018-06-17T11:17:29.852Z,53.73
2018-06-17T11:18:33.368Z,53.77
2018-06-17T11:19:37.200Z,53.74
2018-06-17T11:20:41.125Z,53.76
2018-06-17T11:21:44.349Z,53.58
2018-06-17T11:22:48.527Z,52.64
2018-06-17T11:23:51.350Z,53.27
2018-06-17T11:24:58.498Z,53.28
2018-06-17T11:26:03.053Z,54.43
2018-06-17T11:27:06.824Z,52.86
2018-06-17T11:28:09.947Z,53.77
2018-06-17T11:29:17.305Z,52.73
2018-06-17T11:30:21.211Z,52.66
2018-06-17T11:31:30.314Z,52.93
2018-06-17T11:32:34.314Z,53.15
2018-06-17T11:33:38.552Z,54.90
2018-06-17T11:34:42.681Z,54.81
2018-06-17T11:35:45.608Z,55.04
2018-06-17T11:36:49.402Z,54.50
2018-06-17T11:37:52.482Z,53.74
2018-06-17T11:38:56.412Z,52.65
2018-06-17T11:40:03.775Z,53.92
2018-06-17T11:41:08.091Z,53.13
2018-06-17T11:42:10.989Z,52.89
2018-06-17T11:43:13.830Z,53.00
2018-06-17T11:44:16.799Z,52.97
2018-06-17T11:45:21.289Z,53.75
2018-06-17T11:46:24.159Z,52.74
2018-06-17T11:47:27.346Z,51.69
2018-06-17T11:48:30.200Z,52.35
2018-06-17T11:49:33.794Z,51.47
2018-06-17T11:50:36.700Z,50.18
2018-06-17T11:51:40.511Z,48.89
2018-06-17T11:52:44.199Z,49.20
2018-06-17T11:53:48.359Z,50.99
2018-06-17T11:54:51.162Z,50.23
2018-06-17T11:55:53.981Z,50.20
2018-06-17T11:56:56.819Z,51.52
2018-06-17T11:58:00.619Z,52.15
2018-06-17T11:59:04.344Z,52.43
2018-06-17T12:00:07.866Z,52.25
2018-06-17T12:01:10.750Z,52.83
2018-06-17T12:02:13.605Z,52.57
2018-06-17T12:03:17.708Z,52.41
2018-06-17T12:04:23.031Z,52.08
2018-06-17T12:05:25.863Z,52.00
2018-06-17T12:06:29.082Z,51.86
2018-06-17T12:07:32.854Z,51.48
2018-06-17T12:08:35.912Z,51.51
2018-06-17T12:09:38.687Z,51.48
2018-06-17T12:10:42.092Z,51.34
2018-06-17T12:11:45.611Z,51.99
2018-06-17T12:12:49.703Z,51.63
2018-06-17T12:13:53.547Z,52.18
2018-06-17T12:14:57.282Z,51.67
2018-06-17T12:16:01.266Z,52.07
2018-06-17T12:17:04.393Z,52.20
2018-06-17T12:18:10.875Z,52.48
2018-06-17T12:19:15.354Z,52.31
2018-06-17T12:20:21.254Z,52.75
2018-06-17T12:21:24.227Z,52.51
2018-06-17T12:22:27.614Z,50.91
2018-06-17T12:23:31.244Z,50.93
2018-06-17T12:24:34.747Z,51.97
2018-06-17T12:25:38.612Z,52.24
2018-06-17T12:26:41.444Z,51.62
2018-06-17T12:27:44.817Z,51.08
2018-06-17T12:28:49.293Z,50.97
2018-06-17T12:29:54.595Z,50.77
2018-06-17T12:30:58.243Z,50.76
2018-06-17T12:32:03.731Z,50.17
2018-06-17T12:33:06.705Z,49.66
2018-06-17T12:34:10.363Z,51.03
2018-06-17T12:35:13.214Z,50.74
2018-06-17T12:36:16.894Z,50.77
2018-06-17T12:37:21.574Z,51.08
2018-06-17T12:38:26.243Z,51.57
2018-06-17T12:39:32.411Z,51.85
2018-06-17T12:40:36.375Z,51.16
2018-06-17T12:41:40.494Z,52.56
2018-06-17T12:42:43.405Z,51.15
2018-06-17T12:43:46.234Z,52.65
2018-06-17T12:44:55.954Z,53.46
2018-06-17T12:45:58.836Z,52.46
2018-06-17T12:47:01.702Z,53.45
2018-06-17T12:48:05.522Z,51.63
2018-06-17T12:49:09.364Z,51.60
2018-06-17T12:50:12.181Z,51.31
2018-06-17T12:51:16.225Z,50.73
2018-06-17T12:52:20.283Z,50.65
2018-06-17T12:53:23.376Z,51.63
2018-06-17T12:54:26.255Z,51.62
2018-06-17T12:55:29.119Z,53.04
2018-06-17T12:56:33.671Z,52.08
2018-06-17T12:57:38.493Z,53.18
2018-06-17T12:58:42.517Z,52.72
2018-06-17T12:59:45.433Z,52.44
2018-06-17T13:00:48.370Z,53.30
2018-06-17T13:01:51.425Z,53.04
2018-06-17T13:02:55.432Z,53.96
2018-06-17T13:03:58.319Z,53.53
2018-06-17T13:05:01.393Z,53.61
2018-06-17T13:06:07.049Z,53.81
2018-06-17T13:07:10.470Z,52.66
2018-06-17T13:08:13.388Z,53.90
2018-06-17T13:09:17.333Z,53.48
2018-06-17T13:10:20.391Z,53.33
2018-06-17T13:11:23.799Z,52.60
2018-06-17T13:12:26.633Z,53.01
2018-06-17T13:13:29.434Z,52.24
2018-06-17T13:14:32.956Z,52.18
2018-06-17T13:15:36.270Z,52.76
2018-06-17T13:16:39.694Z,52.15
2018-06-17T13:17:43.568Z,51.75
2018-06-17T13:18:48.345Z,52.12
2018-06-17T13:19:52.067Z,51.49
2018-06-17T13:20:55.345Z,51.81
2018-06-17T13:21:58.509Z,51.07
2018-06-17T13:23:04.682Z,51.11
2018-06-17T13:24:08.887Z,52.15
2018-06-17T13:25:12.560Z,51.94
2018-06-17T13:26:18.063Z,52.33
2018-06-17T13:27:21.572Z,52.42
2018-06-17T13:28:24.725Z,52.54
2018-06-17T13:29:28.148Z,53.20
2018-06-17T13:30:30.967Z,53.78
2018-06-17T13:31:35.581Z,53.29
2018-06-17T13:32:39.532Z,52.49
2018-06-17T13:33:44.384Z,51.83
2018-06-17T13:34:50.246Z,51.57
2018-06-17T13:35:53.949Z,51.30
2018-06-17T13:36:56.788Z,51.96
2018-06-17T13:38:00.514Z,52.37
2018-06-17T13:39:05.129Z,51.46
2018-06-17T13:40:08.462Z,52.13
2018-06-17T13:41:12.466Z,52.78
2018-06-17T13:42:15.365Z,52.17
2018-06-17T13:43:19.317Z,52.24
2018-06-17T13:44:23.172Z,51.83
2018-06-17T13:45:27.539Z,52.24
2018-06-17T13:46:30.740Z,52.33
2018-06-17T13:47:33.893Z,53.01
2018-06-17T13:48:36.786Z,53.02
2018-06-17T13:49:39.811Z,52.08
2018-06-17T13:50:42.684Z,52.24
2018-06-17T13:51:45.760Z,52.13
2018-06-17T13:52:50.021Z,51.28
2018-06-17T13:53:55.476Z,51.66
2018-06-17T13:54:59.886Z,52.38
2018-06-17T13:56:03.654Z,51.94
2018-06-17T13:57:08.887Z,51.98
2018-06-17T13:58:11.743Z,52.25
2018-06-17T13:59:16.461Z,52.32
2018-06-17T14:00:20.550Z,52.04
2018-06-17T14:01:26.682Z,52.18
2018-06-17T14:02:36.874Z,52.45
2018-06-17T14:03:41.314Z,52.74
2018-06-17T14:04:48.393Z,52.75
2018-06-17T14:05:53.624Z,53.42
2018-06-17T14:06:58.613Z,52.48
2018-06-17T14:08:02.317Z,53.04
2018-06-17T14:09:06.447Z,53.86
2018-06-17T14:10:11.270Z,53.92
2018-06-17T14:11:16.569Z,54.29
2018-06-17T14:12:19.677Z,53.28
2018-06-17T14:13:25.699Z,52.98
2018-06-17T14:14:29.391Z,53.32